sensor_id;sensor_type;location;lat;lon;timestamp;P1;durP1;ratioP1;P2;durP2;ratioP2
5077;SDS011;2557;51.390;7.494;2022-09-09T00:06:45;2.00;;;1.57;;
5077;SDS011;2557;51.390;7.494;2022-09-09T00:09:12;3.43;;;1.60;;
5077;SDS011;2557;51.390;7.494;2022-09-09T00:14:23;3.50;;;1.83;;
5077;SDS011;2557;51.390;7.494;2022-09-09T00:16:54;9.53;;;2.20;;
5077;SDS011;2557;51.390;7.494;2022-09-09T00:19:26;2.80;;;1.63;;
5077;SDS011;2557;51.390;7.494;2022-09-09T00:22:08;3.43;;;1.50;;
5077;SDS011;2557;51.390;7.494;2022-09-09T00:24:43;6.37;;;2.00;;
5077;SDS011;2557;51.390;7.494;2022-09-09T00:27:21;3.10;;;1.80;;
5077;SDS011;2557;51.390;7.494;2022-09-09T00:29:53;3.03;;;1.77;;
5077;SDS011;2557;51.390;7.494;2022-09-09T00:32:20;1.63;;;1.50;;
5077;SDS011;2557;51.390;7.494;2022-09-09T00:34:54;3.30;;;1.90;;
5077;SDS011;2557;51.390;7.494;2022-09-09T00:37:21;4.17;;;1.83;;
5077;SDS011;2557;51.390;7.494;2022-09-09T00:39:48;2.33;;;1.93;;
5077;SDS011;2557;51.390;7.494;2022-09-09T00:42:23;1.67;;;1.57;;
5077;SDS011;2557;51.390;7.494;2022-09-09T00:50:02;2.43;;;2.10;;
5077;SDS011;2557;51.390;7.494;2022-09-09T00:54:59;3.90;;;1.93;;
5077;SDS011;2557;51.390;7.494;2022-09-09T00:57:28;3.60;;;2.10;;
5077;SDS011;2557;51.390;7.494;2022-09-09T01:00:39;3.37;;;2.40;;
5077;SDS011;2557;51.390;7.494;2022-09-09T01:05:30;6.83;;;2.53;;
5077;SDS011;2557;51.390;7.494;2022-09-09T01:08:00;8.27;;;2.63;;
5077;SDS011;2557;51.390;7.494;2022-09-09T01:10:38;1.93;;;1.83;;
5077;SDS011;2557;51.390;7.494;2022-09-09T01:13:08;6.17;;;2.60;;
5077;SDS011;2557;51.390;7.494;2022-09-09T01:15:38;3.83;;;2.00;;
5077;SDS011;2557;51.390;7.494;2022-09-09T01:18:07;4.73;;;2.60;;
5077;SDS011;2557;51.390;7.494;2022-09-09T01:20:44;3.90;;;2.50;;
5077;SDS011;2557;51.390;7.494;2022-09-09T01:26:13;2.90;;;2.10;;
5077;SDS011;2557;51.390;7.494;2022-09-09T01:28:43;5.43;;;2.23;;
5077;SDS011;2557;51.390;7.494;2022-09-09T01:31:11;4.80;;;2.60;;
5077;SDS011;2557;51.390;7.494;2022-09-09T01:33:39;4.43;;;2.23;;
5077;SDS011;2557;51.390;7.494;2022-09-09T01:38:35;4.07;;;2.23;;
5077;SDS011;2557;51.390;7.494;2022-09-09T01:41:01;2.13;;;1.53;;
5077;SDS011;2557;51.390;7.494;2022-09-09T01:43:27;2.23;;;2.03;;
5077;SDS011;2557;51.390;7.494;2022-09-09T01:45:54;5.03;;;2.47;;
5077;SDS011;2557;51.390;7.494;2022-09-09T01:48:21;4.93;;;2.00;;
5077;SDS011;2557;51.390;7.494;2022-09-09T01:50:48;2.87;;;2.20;;
5077;SDS011;2557;51.390;7.494;2022-09-09T01:53:14;2.13;;;1.93;;
5077;SDS011;2557;51.390;7.494;2022-09-09T01:55:42;2.67;;;2.10;;
5077;SDS011;2557;51.390;7.494;2022-09-09T01:59:13;2.57;;;1.87;;
5077;SDS011;2557;51.390;7.494;2022-09-09T02:03:52;2.30;;;1.90;;
5077;SDS011;2557;51.390;7.494;2022-09-09T02:08:52;3.83;;;1.90;;
5077;SDS011;2557;51.390;7.494;2022-09-09T02:11:22;4.60;;;2.10;;
5077;SDS011;2557;51.390;7.494;2022-09-09T02:13:50;4.40;;;2.00;;
5077;SDS011;2557;51.390;7.494;2022-09-09T02:21:15;3.50;;;1.90;;
5077;SDS011;2557;51.390;7.494;2022-09-09T02:23:42;3.87;;;1.77;;
5077;SDS011;2557;51.390;7.494;2022-09-09T02:26:10;2.50;;;1.60;;
5077;SDS011;2557;51.390;7.494;2022-09-09T02:28:38;2.83;;;2.10;;
5077;SDS011;2557;51.390;7.494;2022-09-09T02:31:05;6.80;;;2.37;;
5077;SDS011;2557;51.390;7.494;2022-09-09T02:33:33;2.50;;;1.77;;
5077;SDS011;2557;51.390;7.494;2022-09-09T02:36:01;2.40;;;2.20;;
5077;SDS011;2557;51.390;7.494;2022-09-09T02:38:28;4.20;;;1.73;;
5077;SDS011;2557;51.390;7.494;2022-09-09T02:40:55;4.83;;;2.23;;
5077;SDS011;2557;51.390;7.494;2022-09-09T02:43:21;3.73;;;1.90;;
5077;SDS011;2557;51.390;7.494;2022-09-09T02:45:53;4.20;;;1.80;;
5077;SDS011;2557;51.390;7.494;2022-09-09T02:48:25;3.87;;;1.93;;
5077;SDS011;2557;51.390;7.494;2022-09-09T02:50:57;2.60;;;1.70;;
5077;SDS011;2557;51.390;7.494;2022-09-09T02:53:47;2.17;;;1.80;;
5077;SDS011;2557;51.390;7.494;2022-09-09T02:56:18;1.77;;;1.67;;
5077;SDS011;2557;51.390;7.494;2022-09-09T02:58:46;3.57;;;1.70;;
5077;SDS011;2557;51.390;7.494;2022-09-09T03:01:12;2.43;;;1.80;;
5077;SDS011;2557;51.390;7.494;2022-09-09T03:03:39;3.77;;;1.90;;
5077;SDS011;2557;51.390;7.494;2022-09-09T03:06:06;8.77;;;2.27;;
5077;SDS011;2557;51.390;7.494;2022-09-09T03:08:32;3.80;;;1.70;;
5077;SDS011;2557;51.390;7.494;2022-09-09T03:10:58;5.20;;;2.00;;
5077;SDS011;2557;51.390;7.494;2022-09-09T03:13:27;1.83;;;1.73;;
5077;SDS011;2557;51.390;7.494;2022-09-09T03:15:53;2.87;;;1.80;;
5077;SDS011;2557;51.390;7.494;2022-09-09T03:18:19;2.90;;;1.90;;
5077;SDS011;2557;51.390;7.494;2022-09-09T03:20:46;2.00;;;1.80;;
5077;SDS011;2557;51.390;7.494;2022-09-09T03:23:15;2.40;;;1.73;;
5077;SDS011;2557;51.390;7.494;2022-09-09T03:25:51;3.50;;;2.20;;
5077;SDS011;2557;51.390;7.494;2022-09-09T03:28:19;5.20;;;2.43;;
5077;SDS011;2557;51.390;7.494;2022-09-09T03:30:45;4.80;;;1.73;;
5077;SDS011;2557;51.390;7.494;2022-09-09T03:33:11;3.23;;;2.13;;
5077;SDS011;2557;51.390;7.494;2022-09-09T03:35:37;7.43;;;1.67;;
5077;SDS011;2557;51.390;7.494;2022-09-09T03:38:04;5.47;;;1.73;;
5077;SDS011;2557;51.390;7.494;2022-09-09T03:40:30;2.33;;;2.00;;
5077;SDS011;2557;51.390;7.494;2022-09-09T03:42:56;3.00;;;2.00;;
5077;SDS011;2557;51.390;7.494;2022-09-09T03:45:22;6.43;;;2.50;;
5077;SDS011;2557;51.390;7.494;2022-09-09T03:47:48;5.10;;;2.27;;
5077;SDS011;2557;51.390;7.494;2022-09-09T03:50:14;2.33;;;2.00;;
5077;SDS011;2557;51.390;7.494;2022-09-09T03:52:41;6.97;;;2.63;;
5077;SDS011;2557;51.390;7.494;2022-09-09T03:55:07;7.03;;;2.50;;
5077;SDS011;2557;51.390;7.494;2022-09-09T03:57:35;6.47;;;2.60;;
5077;SDS011;2557;51.390;7.494;2022-09-09T04:00:04;4.93;;;2.33;;
5077;SDS011;2557;51.390;7.494;2022-09-09T04:02:31;3.30;;;1.87;;
5077;SDS011;2557;51.390;7.494;2022-09-09T04:04:57;3.70;;;2.00;;
5077;SDS011;2557;51.390;7.494;2022-09-09T04:07:23;3.97;;;2.00;;
5077;SDS011;2557;51.390;7.494;2022-09-09T04:09:48;3.87;;;2.33;;
5077;SDS011;2557;51.390;7.494;2022-09-09T04:12:15;5.83;;;2.27;;
5077;SDS011;2557;51.390;7.494;2022-09-09T04:14:42;5.63;;;2.67;;
5077;SDS011;2557;51.390;7.494;2022-09-09T04:17:08;3.47;;;2.57;;
5077;SDS011;2557;51.390;7.494;2022-09-09T04:19:35;5.17;;;2.33;;
5077;SDS011;2557;51.390;7.494;2022-09-09T04:22:00;6.40;;;1.97;;
5077;SDS011;2557;51.390;7.494;2022-09-09T04:24:26;2.63;;;2.17;;
5077;SDS011;2557;51.390;7.494;2022-09-09T04:26:54;4.67;;;2.30;;
5077;SDS011;2557;51.390;7.494;2022-09-09T04:29:20;4.93;;;2.07;;
5077;SDS011;2557;51.390;7.494;2022-09-09T04:31:46;4.27;;;2.17;;
5077;SDS011;2557;51.390;7.494;2022-09-09T04:34:12;3.47;;;2.07;;
5077;SDS011;2557;51.390;7.494;2022-09-09T04:36:38;5.07;;;2.17;;
5077;SDS011;2557;51.390;7.494;2022-09-09T04:39:05;4.43;;;2.40;;
5077;SDS011;2557;51.390;7.494;2022-09-09T04:41:31;5.47;;;2.30;;
5077;SDS011;2557;51.390;7.494;2022-09-09T04:43:57;4.83;;;2.10;;
5077;SDS011;2557;51.390;7.494;2022-09-09T04:46:24;4.40;;;2.50;;
5077;SDS011;2557;51.390;7.494;2022-09-09T04:48:50;7.60;;;3.03;;
5077;SDS011;2557;51.390;7.494;2022-09-09T04:51:17;3.30;;;2.63;;
5077;SDS011;2557;51.390;7.494;2022-09-09T04:53:43;4.87;;;2.30;;
5077;SDS011;2557;51.390;7.494;2022-09-09T04:56:11;3.07;;;2.23;;
5077;SDS011;2557;51.390;7.494;2022-09-09T04:58:38;11.17;;;2.97;;
5077;SDS011;2557;51.390;7.494;2022-09-09T05:01:07;3.03;;;2.20;;
5077;SDS011;2557;51.390;7.494;2022-09-09T05:03:34;4.00;;;2.90;;
5077;SDS011;2557;51.390;7.494;2022-09-09T05:06:04;4.07;;;2.27;;
5077;SDS011;2557;51.390;7.494;2022-09-09T05:08:30;2.37;;;2.17;;
5077;SDS011;2557;51.390;7.494;2022-09-09T05:10:56;2.07;;;1.90;;
5077;SDS011;2557;51.390;7.494;2022-09-09T05:13:23;5.00;;;2.57;;
5077;SDS011;2557;51.390;7.494;2022-09-09T05:15:52;3.30;;;2.10;;
5077;SDS011;2557;51.390;7.494;2022-09-09T05:18:18;5.10;;;1.80;;
5077;SDS011;2557;51.390;7.494;2022-09-09T05:20:44;4.80;;;2.20;;
5077;SDS011;2557;51.390;7.494;2022-09-09T05:23:10;3.03;;;2.23;;
5077;SDS011;2557;51.390;7.494;2022-09-09T05:25:38;3.43;;;2.00;;
5077;SDS011;2557;51.390;7.494;2022-09-09T05:28:05;3.37;;;2.17;;
5077;SDS011;2557;51.390;7.494;2022-09-09T05:30:32;3.60;;;2.60;;
5077;SDS011;2557;51.390;7.494;2022-09-09T05:32:58;6.20;;;2.50;;
5077;SDS011;2557;51.390;7.494;2022-09-09T05:35:24;10.10;;;2.57;;
5077;SDS011;2557;51.390;7.494;2022-09-09T05:37:51;5.97;;;2.80;;
5077;SDS011;2557;51.390;7.494;2022-09-09T05:40:17;5.17;;;2.27;;
5077;SDS011;2557;51.390;7.494;2022-09-09T05:42:43;6.40;;;2.20;;
5077;SDS011;2557;51.390;7.494;2022-09-09T05:45:09;2.80;;;2.13;;
5077;SDS011;2557;51.390;7.494;2022-09-09T05:47:35;6.27;;;1.83;;
5077;SDS011;2557;51.390;7.494;2022-09-09T05:50:02;6.00;;;2.63;;
5077;SDS011;2557;51.390;7.494;2022-09-09T05:52:28;7.30;;;2.20;;
5077;SDS011;2557;51.390;7.494;2022-09-09T05:54:55;3.57;;;1.97;;
5077;SDS011;2557;51.390;7.494;2022-09-09T05:57:22;4.67;;;2.33;;
5077;SDS011;2557;51.390;7.494;2022-09-09T05:59:47;3.73;;;1.90;;
5077;SDS011;2557;51.390;7.494;2022-09-09T06:02:14;7.70;;;2.13;;
5077;SDS011;2557;51.390;7.494;2022-09-09T06:04:41;8.97;;;2.47;;
5077;SDS011;2557;51.390;7.494;2022-09-09T06:07:07;3.27;;;2.47;;
5077;SDS011;2557;51.390;7.494;2022-09-09T06:09:33;5.90;;;2.13;;
5077;SDS011;2557;51.390;7.494;2022-09-09T06:11:59;6.13;;;2.50;;
5077;SDS011;2557;51.390;7.494;2022-09-09T06:14:25;3.30;;;2.63;;
5077;SDS011;2557;51.390;7.494;2022-09-09T06:16:52;7.27;;;2.20;;
5077;SDS011;2557;51.390;7.494;2022-09-09T06:19:18;6.90;;;2.40;;
5077;SDS011;2557;51.390;7.494;2022-09-09T06:21:45;6.17;;;2.13;;
5077;SDS011;2557;51.390;7.494;2022-09-09T06:24:12;6.37;;;2.27;;
5077;SDS011;2557;51.390;7.494;2022-09-09T06:26:42;3.87;;;3.23;;
5077;SDS011;2557;51.390;7.494;2022-09-09T06:29:08;5.97;;;2.27;;
5077;SDS011;2557;51.390;7.494;2022-09-09T06:31:35;5.77;;;2.00;;
5077;SDS011;2557;51.390;7.494;2022-09-09T06:34:02;3.10;;;2.27;;
5077;SDS011;2557;51.390;7.494;2022-09-09T06:36:33;3.70;;;2.83;;
5077;SDS011;2557;51.390;7.494;2022-09-09T06:38:59;3.63;;;2.10;;
5077;SDS011;2557;51.390;7.494;2022-09-09T06:41:29;5.37;;;2.13;;
5077;SDS011;2557;51.390;7.494;2022-09-09T06:43:55;8.07;;;2.57;;
5077;SDS011;2557;51.390;7.494;2022-09-09T06:46:22;6.00;;;2.90;;
5077;SDS011;2557;51.390;7.494;2022-09-09T06:48:48;3.33;;;2.03;;
5077;SDS011;2557;51.390;7.494;2022-09-09T06:51:18;7.03;;;2.23;;
5077;SDS011;2557;51.390;7.494;2022-09-09T06:53:46;5.90;;;2.33;;
5077;SDS011;2557;51.390;7.494;2022-09-09T06:58:54;3.33;;;2.10;;
5077;SDS011;2557;51.390;7.494;2022-09-09T07:01:30;5.40;;;2.30;;
5077;SDS011;2557;51.390;7.494;2022-09-09T07:03:57;4.20;;;2.07;;
5077;SDS011;2557;51.390;7.494;2022-09-09T07:06:30;4.53;;;2.10;;
5077;SDS011;2557;51.390;7.494;2022-09-09T07:08:57;2.70;;;2.00;;
5077;SDS011;2557;51.390;7.494;2022-09-09T07:11:25;5.13;;;2.20;;
5077;SDS011;2557;51.390;7.494;2022-09-09T07:13:54;5.60;;;2.30;;
5077;SDS011;2557;51.390;7.494;2022-09-09T07:16:21;7.07;;;2.13;;
5077;SDS011;2557;51.390;7.494;2022-09-09T07:18:52;5.23;;;2.17;;
5077;SDS011;2557;51.390;7.494;2022-09-09T07:21:22;2.80;;;1.73;;
5077;SDS011;2557;51.390;7.494;2022-09-09T07:23:49;2.50;;;2.30;;
5077;SDS011;2557;51.390;7.494;2022-09-09T07:26:17;4.03;;;2.03;;
5077;SDS011;2557;51.390;7.494;2022-09-09T07:28:44;3.70;;;2.23;;
5077;SDS011;2557;51.390;7.494;2022-09-09T07:31:15;3.37;;;2.00;;
5077;SDS011;2557;51.390;7.494;2022-09-09T07:33:41;3.20;;;2.20;;
5077;SDS011;2557;51.390;7.494;2022-09-09T07:36:29;7.17;;;1.97;;
5077;SDS011;2557;51.390;7.494;2022-09-09T07:38:58;5.10;;;2.50;;
5077;SDS011;2557;51.390;7.494;2022-09-09T07:41:25;2.87;;;1.80;;
5077;SDS011;2557;51.390;7.494;2022-09-09T07:43:51;3.80;;;2.23;;
5077;SDS011;2557;51.390;7.494;2022-09-09T07:46:21;5.53;;;2.50;;
5077;SDS011;2557;51.390;7.494;2022-09-09T07:48:49;6.33;;;3.10;;
5077;SDS011;2557;51.390;7.494;2022-09-09T07:51:20;8.87;;;2.67;;
5077;SDS011;2557;51.390;7.494;2022-09-09T07:53:47;6.50;;;2.93;;
5077;SDS011;2557;51.390;7.494;2022-09-09T07:56:14;3.60;;;2.60;;
5077;SDS011;2557;51.390;7.494;2022-09-09T07:58:47;4.03;;;2.40;;
5077;SDS011;2557;51.390;7.494;2022-09-09T08:01:17;2.90;;;1.93;;
5077;SDS011;2557;51.390;7.494;2022-09-09T08:03:44;3.17;;;2.03;;
5077;SDS011;2557;51.390;7.494;2022-09-09T08:06:11;6.63;;;2.10;;
5077;SDS011;2557;51.390;7.494;2022-09-09T08:08:38;5.90;;;1.93;;
5077;SDS011;2557;51.390;7.494;2022-09-09T08:11:10;5.80;;;2.87;;
5077;SDS011;2557;51.390;7.494;2022-09-09T08:13:37;3.10;;;2.10;;
5077;SDS011;2557;51.390;7.494;2022-09-09T08:16:13;5.80;;;2.47;;
5077;SDS011;2557;51.390;7.494;2022-09-09T08:18:40;4.10;;;2.20;;
5077;SDS011;2557;51.390;7.494;2022-09-09T08:21:16;4.70;;;2.60;;
5077;SDS011;2557;51.390;7.494;2022-09-09T08:23:43;2.17;;;1.83;;
5077;SDS011;2557;51.390;7.494;2022-09-09T08:28:36;7.43;;;2.40;;
5077;SDS011;2557;51.390;7.494;2022-09-09T08:31:06;5.37;;;1.90;;
5077;SDS011;2557;51.390;7.494;2022-09-09T08:33:32;6.37;;;2.17;;
5077;SDS011;2557;51.390;7.494;2022-09-09T08:35:58;9.50;;;2.53;;
5077;SDS011;2557;51.390;7.494;2022-09-09T08:38:24;4.77;;;2.80;;
5077;SDS011;2557;51.390;7.494;2022-09-09T08:40:51;6.57;;;2.40;;
5077;SDS011;2557;51.390;7.494;2022-09-09T08:43:18;3.17;;;2.00;;
5077;SDS011;2557;51.390;7.494;2022-09-09T08:46:01;7.50;;;3.07;;
5077;SDS011;2557;51.390;7.494;2022-09-09T08:48:38;5.40;;;2.50;;
5077;SDS011;2557;51.390;7.494;2022-09-09T08:51:08;4.20;;;2.10;;
5077;SDS011;2557;51.390;7.494;2022-09-09T08:53:38;9.13;;;2.10;;
5077;SDS011;2557;51.390;7.494;2022-09-09T08:56:08;3.53;;;1.90;;
5077;SDS011;2557;51.390;7.494;2022-09-09T08:58:38;3.10;;;1.80;;
5077;SDS011;2557;51.390;7.494;2022-09-09T09:06:06;3.13;;;2.23;;
5077;SDS011;2557;51.390;7.494;2022-09-09T09:11:03;3.97;;;1.70;;
5077;SDS011;2557;51.390;7.494;2022-09-09T09:18:51;4.33;;;2.07;;
5077;SDS011;2557;51.390;7.494;2022-09-09T09:24:05;3.87;;;1.83;;
5077;SDS011;2557;51.390;7.494;2022-09-09T09:26:30;8.17;;;2.27;;
5077;SDS011;2557;51.390;7.494;2022-09-09T09:28:58;2.50;;;1.87;;
5077;SDS011;2557;51.390;7.494;2022-09-09T09:31:24;3.10;;;2.00;;
5077;SDS011;2557;51.390;7.494;2022-09-09T09:33:55;5.10;;;2.03;;
5077;SDS011;2557;51.390;7.494;2022-09-09T09:36:34;3.47;;;1.60;;
5077;SDS011;2557;51.390;7.494;2022-09-09T09:39:01;3.40;;;1.97;;
5077;SDS011;2557;51.390;7.494;2022-09-09T09:41:36;4.10;;;2.00;;
5077;SDS011;2557;51.390;7.494;2022-09-09T09:44:03;5.70;;;1.83;;
5077;SDS011;2557;51.390;7.494;2022-09-09T09:46:31;2.83;;;1.90;;
5077;SDS011;2557;51.390;7.494;2022-09-09T09:51:23;3.77;;;2.07;;
5077;SDS011;2557;51.390;7.494;2022-09-09T09:53:50;4.30;;;1.63;;
5077;SDS011;2557;51.390;7.494;2022-09-09T09:56:25;7.60;;;2.27;;
5077;SDS011;2557;51.390;7.494;2022-09-09T09:58:52;4.60;;;2.33;;
5077;SDS011;2557;51.390;7.494;2022-09-09T10:04:02;4.40;;;1.53;;
5077;SDS011;2557;51.390;7.494;2022-09-09T10:06:29;2.90;;;1.60;;
5077;SDS011;2557;51.390;7.494;2022-09-09T10:08:55;6.23;;;1.90;;
5077;SDS011;2557;51.390;7.494;2022-09-09T10:11:25;4.20;;;2.30;;
5077;SDS011;2557;51.390;7.494;2022-09-09T10:19:09;4.73;;;1.90;;
5077;SDS011;2557;51.390;7.494;2022-09-09T10:24:07;3.93;;;1.87;;
5077;SDS011;2557;51.390;7.494;2022-09-09T10:31:52;4.97;;;1.60;;
5077;SDS011;2557;51.390;7.494;2022-09-09T10:36:54;3.50;;;1.57;;
5077;SDS011;2557;51.390;7.494;2022-09-09T10:41:59;1.83;;;1.43;;
5077;SDS011;2557;51.390;7.494;2022-09-09T10:44:37;2.97;;;1.20;;
5077;SDS011;2557;51.390;7.494;2022-09-09T10:55:03;2.60;;;1.23;;
5077;SDS011;2557;51.390;7.494;2022-09-09T11:00:01;3.63;;;1.70;;
5077;SDS011;2557;51.390;7.494;2022-09-09T11:02:30;1.70;;;1.23;;
5077;SDS011;2557;51.390;7.494;2022-09-09T11:07:42;3.83;;;1.93;;
5077;SDS011;2557;51.390;7.494;2022-09-09T11:10:17;2.50;;;1.50;;
5077;SDS011;2557;51.390;7.494;2022-09-09T11:12:45;3.83;;;1.70;;
5077;SDS011;2557;51.390;7.494;2022-09-09T11:15:20;3.47;;;1.37;;
5077;SDS011;2557;51.390;7.494;2022-09-09T11:17:56;2.67;;;1.43;;
5077;SDS011;2557;51.390;7.494;2022-09-09T11:20:23;3.30;;;1.40;;
5077;SDS011;2557;51.390;7.494;2022-09-09T11:23:03;3.10;;;1.30;;
5077;SDS011;2557;51.390;7.494;2022-09-09T11:25:43;1.83;;;1.23;;
5077;SDS011;2557;51.390;7.494;2022-09-09T11:28:17;3.80;;;1.67;;
5077;SDS011;2557;51.390;7.494;2022-09-09T11:38:53;1.60;;;1.30;;
5077;SDS011;2557;51.390;7.494;2022-09-09T11:41:23;3.17;;;1.50;;
5077;SDS011;2557;51.390;7.494;2022-09-09T11:43:50;2.53;;;1.33;;
5077;SDS011;2557;51.390;7.494;2022-09-09T11:46:20;4.17;;;1.30;;
5077;SDS011;2557;51.390;7.494;2022-09-09T11:51:26;11.67;;;1.40;;
5077;SDS011;2557;51.390;7.494;2022-09-09T11:56:26;1.77;;;1.30;;
5077;SDS011;2557;51.390;7.494;2022-09-09T11:58:54;1.50;;;1.20;;
5077;SDS011;2557;51.390;7.494;2022-09-09T12:01:27;2.57;;;1.20;;
5077;SDS011;2557;51.390;7.494;2022-09-09T12:06:43;3.10;;;1.43;;
5077;SDS011;2557;51.390;7.494;2022-09-09T12:09:27;3.30;;;1.50;;
5077;SDS011;2557;51.390;7.494;2022-09-09T12:14:37;3.00;;;1.30;;
5077;SDS011;2557;51.390;7.494;2022-09-09T12:17:17;2.93;;;1.47;;
5077;SDS011;2557;51.390;7.494;2022-09-09T12:19:45;1.40;;;1.20;;
5077;SDS011;2557;51.390;7.494;2022-09-09T12:25:18;3.47;;;1.50;;
5077;SDS011;2557;51.390;7.494;2022-09-09T12:30:22;2.87;;;1.67;;
5077;SDS011;2557;51.390;7.494;2022-09-09T12:32:59;1.93;;;1.40;;
5077;SDS011;2557;51.390;7.494;2022-09-09T12:35:27;3.50;;;1.30;;
5077;SDS011;2557;51.390;7.494;2022-09-09T12:37:58;5.07;;;1.60;;
5077;SDS011;2557;51.390;7.494;2022-09-09T12:40:27;3.00;;;1.47;;
5077;SDS011;2557;51.390;7.494;2022-09-09T12:42:53;1.53;;;1.20;;
5077;SDS011;2557;51.390;7.494;2022-09-09T12:50:19;1.53;;;1.30;;
5077;SDS011;2557;51.390;7.494;2022-09-09T12:52:46;2.70;;;1.60;;
5077;SDS011;2557;51.390;7.494;2022-09-09T12:55:18;1.87;;;1.40;;
5077;SDS011;2557;51.390;7.494;2022-09-09T12:57:45;3.23;;;1.50;;
5077;SDS011;2557;51.390;7.494;2022-09-09T13:02:44;2.23;;;1.30;;
5077;SDS011;2557;51.390;7.494;2022-09-09T13:05:18;2.63;;;1.50;;
5077;SDS011;2557;51.390;7.494;2022-09-09T13:07:45;3.37;;;1.30;;
5077;SDS011;2557;51.390;7.494;2022-09-09T13:10:12;3.00;;;1.70;;
5077;SDS011;2557;51.390;7.494;2022-09-09T13:12:38;3.83;;;1.90;;
5077;SDS011;2557;51.390;7.494;2022-09-09T13:15:09;4.80;;;1.20;;
5077;SDS011;2557;51.390;7.494;2022-09-09T13:17:38;2.50;;;1.57;;
5077;SDS011;2557;51.390;7.494;2022-09-09T13:20:05;5.83;;;1.60;;
5077;SDS011;2557;51.390;7.494;2022-09-09T13:25:17;2.37;;;1.30;;
5077;SDS011;2557;51.390;7.494;2022-09-09T13:33:20;1.47;;;1.37;;
5077;SDS011;2557;51.390;7.494;2022-09-09T13:35:48;2.13;;;1.23;;
5077;SDS011;2557;51.390;7.494;2022-09-09T13:38:15;2.07;;;1.40;;
5077;SDS011;2557;51.390;7.494;2022-09-09T13:41:00;2.50;;;1.20;;
5077;SDS011;2557;51.390;7.494;2022-09-09T13:43:28;2.80;;;2.17;;
5077;SDS011;2557;51.390;7.494;2022-09-09T13:45:56;4.23;;;1.67;;
5077;SDS011;2557;51.390;7.494;2022-09-09T13:48:23;5.33;;;2.03;;
5077;SDS011;2557;51.390;7.494;2022-09-09T13:50:55;6.57;;;1.60;;
5077;SDS011;2557;51.390;7.494;2022-09-09T13:53:21;2.10;;;1.90;;
5077;SDS011;2557;51.390;7.494;2022-09-09T13:55:47;4.10;;;1.40;;
5077;SDS011;2557;51.390;7.494;2022-09-09T13:58:14;1.90;;;1.43;;
5077;SDS011;2557;51.390;7.494;2022-09-09T14:00:41;3.63;;;1.90;;
5077;SDS011;2557;51.390;7.494;2022-09-09T14:03:08;6.63;;;1.93;;
5077;SDS011;2557;51.390;7.494;2022-09-09T14:05:35;4.50;;;1.90;;
5077;SDS011;2557;51.390;7.494;2022-09-09T14:08:03;4.40;;;2.10;;
5077;SDS011;2557;51.390;7.494;2022-09-09T14:10:29;2.93;;;2.10;;
5077;SDS011;2557;51.390;7.494;2022-09-09T14:12:55;6.60;;;2.00;;
5077;SDS011;2557;51.390;7.494;2022-09-09T14:15:21;2.03;;;1.83;;
5077;SDS011;2557;51.390;7.494;2022-09-09T14:17:47;5.13;;;2.00;;
5077;SDS011;2557;51.390;7.494;2022-09-09T14:20:13;4.63;;;2.00;;
5077;SDS011;2557;51.390;7.494;2022-09-09T14:22:40;2.80;;;1.80;;
5077;SDS011;2557;51.390;7.494;2022-09-09T14:25:06;3.57;;;2.07;;
5077;SDS011;2557;51.390;7.494;2022-09-09T14:27:33;5.50;;;1.77;;
5077;SDS011;2557;51.390;7.494;2022-09-09T14:29:59;2.43;;;1.90;;
5077;SDS011;2557;51.390;7.494;2022-09-09T14:32:25;2.77;;;1.80;;
5077;SDS011;2557;51.390;7.494;2022-09-09T14:34:52;3.33;;;1.70;;
5077;SDS011;2557;51.390;7.494;2022-09-09T14:37:18;1.80;;;1.70;;
5077;SDS011;2557;51.390;7.494;2022-09-09T14:39:45;3.13;;;2.03;;
5077;SDS011;2557;51.390;7.494;2022-09-09T14:42:12;3.70;;;1.60;;
5077;SDS011;2557;51.390;7.494;2022-09-09T14:44:39;1.80;;;1.70;;
5077;SDS011;2557;51.390;7.494;2022-09-09T14:47:06;3.00;;;1.90;;
5077;SDS011;2557;51.390;7.494;2022-09-09T14:49:33;7.33;;;2.00;;
5077;SDS011;2557;51.390;7.494;2022-09-09T14:51:59;4.90;;;1.70;;
5077;SDS011;2557;51.390;7.494;2022-09-09T14:54:25;2.33;;;1.60;;
5077;SDS011;2557;51.390;7.494;2022-09-09T14:56:52;1.90;;;1.80;;
5077;SDS011;2557;51.390;7.494;2022-09-09T14:59:18;2.33;;;1.53;;
5077;SDS011;2557;51.390;7.494;2022-09-09T15:01:44;1.90;;;1.80;;
5077;SDS011;2557;51.390;7.494;2022-09-09T15:04:11;5.43;;;2.03;;
5077;SDS011;2557;51.390;7.494;2022-09-09T15:06:39;2.20;;;1.97;;
5077;SDS011;2557;51.390;7.494;2022-09-09T15:09:07;2.00;;;1.80;;
5077;SDS011;2557;51.390;7.494;2022-09-09T15:11:34;4.40;;;1.90;;
5077;SDS011;2557;51.390;7.494;2022-09-09T15:14:04;2.37;;;2.17;;
5077;SDS011;2557;51.390;7.494;2022-09-09T15:16:30;2.50;;;1.60;;
5077;SDS011;2557;51.390;7.494;2022-09-09T15:18:58;3.10;;;2.03;;
5077;SDS011;2557;51.390;7.494;2022-09-09T15:21:25;3.70;;;1.60;;
5077;SDS011;2557;51.390;7.494;2022-09-09T15:23:52;7.63;;;2.77;;
5077;SDS011;2557;51.390;7.494;2022-09-09T15:26:18;3.30;;;1.90;;
5077;SDS011;2557;51.390;7.494;2022-09-09T15:28:45;6.67;;;2.30;;
5077;SDS011;2557;51.390;7.494;2022-09-09T15:31:16;6.83;;;3.00;;
5077;SDS011;2557;51.390;7.494;2022-09-09T15:34:02;7.63;;;2.33;;
5077;SDS011;2557;51.390;7.494;2022-09-09T15:38:54;2.70;;;2.10;;
5077;SDS011;2557;51.390;7.494;2022-09-09T15:41:21;7.30;;;2.20;;
5077;SDS011;2557;51.390;7.494;2022-09-09T15:43:48;3.77;;;2.03;;
5077;SDS011;2557;51.390;7.494;2022-09-09T15:48:43;8.10;;;2.33;;
5077;SDS011;2557;51.390;7.494;2022-09-09T15:51:10;2.13;;;1.93;;
5077;SDS011;2557;51.390;7.494;2022-09-09T15:53:37;4.70;;;2.10;;
5077;SDS011;2557;51.390;7.494;2022-09-09T15:56:06;3.07;;;2.10;;
5077;SDS011;2557;51.390;7.494;2022-09-09T15:58:35;3.90;;;2.37;;
5077;SDS011;2557;51.390;7.494;2022-09-09T16:01:08;4.93;;;2.00;;
5077;SDS011;2557;51.390;7.494;2022-09-09T16:03:38;5.00;;;2.17;;
5077;SDS011;2557;51.390;7.494;2022-09-09T16:06:04;1.87;;;1.77;;
5077;SDS011;2557;51.390;7.494;2022-09-09T16:08:31;2.13;;;1.60;;
5077;SDS011;2557;51.390;7.494;2022-09-09T16:11:03;2.27;;;2.10;;
5077;SDS011;2557;51.390;7.494;2022-09-09T16:13:32;2.50;;;1.60;;
5077;SDS011;2557;51.390;7.494;2022-09-09T16:15:58;3.37;;;1.90;;
5077;SDS011;2557;51.390;7.494;2022-09-09T16:18:24;2.83;;;2.13;;
5077;SDS011;2557;51.390;7.494;2022-09-09T16:20:56;1.60;;;1.50;;
5077;SDS011;2557;51.390;7.494;2022-09-09T16:23:22;3.57;;;1.93;;
5077;SDS011;2557;51.390;7.494;2022-09-09T16:25:55;2.40;;;1.90;;
5077;SDS011;2557;51.390;7.494;2022-09-09T16:28:22;1.70;;;1.50;;
5077;SDS011;2557;51.390;7.494;2022-09-09T16:30:48;1.73;;;1.63;;
5077;SDS011;2557;51.390;7.494;2022-09-09T16:33:14;2.77;;;1.67;;
5077;SDS011;2557;51.390;7.494;2022-09-09T16:35:41;5.33;;;1.57;;
5077;SDS011;2557;51.390;7.494;2022-09-09T16:38:07;3.23;;;1.67;;
5077;SDS011;2557;51.390;7.494;2022-09-09T16:40:33;2.10;;;1.73;;
5077;SDS011;2557;51.390;7.494;2022-09-09T16:43:00;3.17;;;1.80;;
5077;SDS011;2557;51.390;7.494;2022-09-09T16:45:26;4.23;;;2.17;;
5077;SDS011;2557;51.390;7.494;2022-09-09T16:47:52;1.83;;;1.73;;
5077;SDS011;2557;51.390;7.494;2022-09-09T16:50:18;2.00;;;1.50;;
5077;SDS011;2557;51.390;7.494;2022-09-09T16:52:44;2.63;;;1.80;;
5077;SDS011;2557;51.390;7.494;2022-09-09T16:55:11;2.00;;;1.80;;
5077;SDS011;2557;51.390;7.494;2022-09-09T16:57:37;1.90;;;1.80;;
5077;SDS011;2557;51.390;7.494;2022-09-09T17:00:03;3.00;;;2.00;;
5077;SDS011;2557;51.390;7.494;2022-09-09T17:02:31;3.53;;;2.40;;
5077;SDS011;2557;51.390;7.494;2022-09-09T17:04:58;3.70;;;2.97;;
5077;SDS011;2557;51.390;7.494;2022-09-09T17:07:24;4.03;;;3.27;;
5077;SDS011;2557;51.390;7.494;2022-09-09T17:09:50;8.57;;;3.10;;
5077;SDS011;2557;51.390;7.494;2022-09-09T17:12:19;3.37;;;3.07;;
5077;SDS011;2557;51.390;7.494;2022-09-09T17:14:46;6.50;;;2.70;;
5077;SDS011;2557;51.390;7.494;2022-09-09T17:17:12;11.67;;;4.20;;
5077;SDS011;2557;51.390;7.494;2022-09-09T17:19:38;5.80;;;3.63;;
5077;SDS011;2557;51.390;7.494;2022-09-09T17:22:04;5.50;;;3.90;;
5077;SDS011;2557;51.390;7.494;2022-09-09T17:24:30;3.90;;;2.27;;
5077;SDS011;2557;51.390;7.494;2022-09-09T17:26:57;6.00;;;2.60;;
5077;SDS011;2557;51.390;7.494;2022-09-09T17:29:23;2.17;;;2.07;;
5077;SDS011;2557;51.390;7.494;2022-09-09T17:31:49;2.90;;;2.30;;
5077;SDS011;2557;51.390;7.494;2022-09-09T17:34:16;3.70;;;2.30;;
5077;SDS011;2557;51.390;7.494;2022-09-09T17:36:42;2.43;;;2.13;;
5077;SDS011;2557;51.390;7.494;2022-09-09T17:39:08;2.30;;;2.10;;